SWA445 KDEN-KSLC
Flight info
| Callsign | SWA445 |
|---|---|
| Flight time | 1h 9m |
| Altitude | 34000 |
| Route | KDEN/34L ZIMMR4 CHNGY DCT EKR PITTT2 KSLC/16L |
| Aircraft | B738/M-SDG/C |
Departure
| Time | 2026-05-06 02:28 |
|---|---|
| Airport | Denver International Airport (KDEN) |
Arrival
| Time | 2026-05-06 03:38 |
|---|---|
| Airport | Salt Lake City International Airport (KSLC) |
| Time | Latitude | Longitude | Altitude | Speed | Heading |
|---|---|---|---|---|---|
| 2026-05-06 02:03 | 39.85804 | -104.67731 | 5382 ft | 0 kts | 360° |
| 2026-05-06 02:14 | 39.85792 | -104.67731 | 5382 ft | 2 kts | 359° |
| 2026-05-06 02:14 | 39.85776 | -104.67731 | 5382 ft | 2 kts | 360° |
| 2026-05-06 02:14 | 39.85761 | -104.67731 | 5382 ft | 2 kts | 360° |
| 2026-05-06 02:15 | 39.85746 | -104.67731 | 5382 ft | 2 kts | 360° |
| 2026-05-06 02:15 | 39.85731 | -104.67731 | 5382 ft | 2 kts | 360° |
| 2026-05-06 02:15 | 39.85716 | -104.67731 | 5382 ft | 2 kts | 360° |
| 2026-05-06 02:15 | 39.85707 | -104.67731 | 5382 ft | 0 kts | 360° |
| 2026-05-06 02:20 | 39.85718 | -104.67763 | 5382 ft | 5 kts | 251° |
| 2026-05-06 02:20 | 39.85700 | -104.67801 | 5382 ft | 4 kts | 237° |
| 2026-05-06 02:20 | 39.85668 | -104.67830 | 5382 ft | 6 kts | 197° |
| 2026-05-06 02:21 | 39.85630 | -104.67845 | 5382 ft | 6 kts | 197° |
| 2026-05-06 02:21 | 39.85597 | -104.67881 | 5382 ft | 6 kts | 250° |
| 2026-05-06 02:21 | 39.85595 | -104.67940 | 5382 ft | 5 kts | 271° |
| 2026-05-06 02:21 | 39.85595 | -104.67986 | 5382 ft | 5 kts | 270° |
| 2026-05-06 02:22 | 39.85596 | -104.68062 | 5382 ft | 10 kts | 271° |
| 2026-05-06 02:22 | 39.85597 | -104.68145 | 5382 ft | 8 kts | 268° |
| 2026-05-06 02:22 | 39.85597 | -104.68212 | 5382 ft | 8 kts | 270° |
| 2026-05-06 02:22 | 39.85597 | -104.68283 | 5382 ft | 6 kts | 271° |
| 2026-05-06 02:23 | 39.85596 | -104.68350 | 5380 ft | 9 kts | 256° |
| 2026-05-06 02:23 | 39.85540 | -104.68401 | 5379 ft | 9 kts | 185° |
| 2026-05-06 02:23 | 39.85483 | -104.68402 | 5380 ft | 5 kts | 180° |
| 2026-05-06 02:23 | 39.85454 | -104.68403 | 5382 ft | 5 kts | 181° |
| 2026-05-06 02:24 | 39.85397 | -104.68403 | 5382 ft | 8 kts | 180° |
| 2026-05-06 02:24 | 39.85346 | -104.68403 | 5382 ft | 7 kts | 180° |
| 2026-05-06 02:24 | 39.85284 | -104.68404 | 5382 ft | 8 kts | 180° |
| 2026-05-06 02:24 | 39.85227 | -104.68413 | 5382 ft | 9 kts | 208° |
| 2026-05-06 02:25 | 39.85206 | -104.68522 | 5379 ft | 14 kts | 272° |
| 2026-05-06 02:25 | 39.85204 | -104.68651 | 5372 ft | 11 kts | 268° |
| 2026-05-06 02:25 | 39.85202 | -104.68759 | 5368 ft | 13 kts | 268° |
| 2026-05-06 02:25 | 39.85200 | -104.68899 | 5361 ft | 16 kts | 267° |
| 2026-05-06 02:26 | 39.85197 | -104.69064 | 5354 ft | 18 kts | 269° |
| 2026-05-06 02:26 | 39.85197 | -104.69182 | 5349 ft | 13 kts | 270° |
| 2026-05-06 02:26 | 39.85199 | -104.69316 | 5341 ft | 16 kts | 271° |
| 2026-05-06 02:26 | 39.85201 | -104.69416 | 5336 ft | 7 kts | 270° |
| 2026-05-06 02:27 | 39.85202 | -104.69492 | 5336 ft | 11 kts | 270° |
| 2026-05-06 02:27 | 39.85202 | -104.69586 | 5336 ft | 9 kts | 270° |
| 2026-05-06 02:27 | 39.85241 | -104.69651 | 5336 ft | 13 kts | 342° |
| 2026-05-06 02:27 | 39.85464 | -104.69656 | 5334 ft | 61 kts | 0° |
| 2026-05-06 02:28 | 39.86125 | -104.69649 | 5330 ft | 126 kts | 359° |
| 2026-05-06 02:28 | 39.87198 | -104.69636 | 5396 ft | 173 kts | 3° |
| 2026-05-06 02:28 | 39.88133 | -104.69417 | 6801 ft | 104 kts | 26° |
| 2026-05-06 02:28 | 39.88743 | -104.68863 | 6404 ft | 168 kts | 55° |
| 2026-05-06 02:29 | 39.89647 | -104.67837 | 6235 ft | 173 kts | 11° |
| 2026-05-06 02:29 | 39.90829 | -104.68137 | 6442 ft | 184 kts | 330° |
| 2026-05-06 02:29 | 39.91893 | -104.69175 | 6604 ft | 192 kts | 318° |
| 2026-05-06 02:29 | 39.92785 | -104.70533 | 6556 ft | 199 kts | 302° |
| 2026-05-06 02:30 | 39.93273 | -104.72203 | 6603 ft | 199 kts | 280° |
| 2026-05-06 02:30 | 39.93284 | -104.74010 | 6897 ft | 201 kts | 267° |
| 2026-05-06 02:30 | 39.93209 | -104.75878 | 7290 ft | 214 kts | 270° |
| 2026-05-06 02:30 | 39.93199 | -104.77867 | 7760 ft | 226 kts | 272° |
| 2026-05-06 02:31 | 39.93255 | -104.79927 | 8204 ft | 227 kts | 273° |
| 2026-05-06 02:31 | 39.93268 | -104.82007 | 8776 ft | 230 kts | 269° |
| 2026-05-06 02:31 | 39.93264 | -104.84156 | 9214 ft | 244 kts | 269° |
| 2026-05-06 02:31 | 39.93277 | -104.86504 | 9292 ft | 274 kts | 269° |
| 2026-05-06 02:32 | 39.93291 | -104.89041 | 9288 ft | 279 kts | 270° |
| 2026-05-06 02:32 | 39.93318 | -104.91545 | 9291 ft | 275 kts | 271° |
| 2026-05-06 02:32 | 39.93377 | -104.94036 | 9290 ft | 276 kts | 271° |
| 2026-05-06 02:32 | 39.93445 | -104.96604 | 9435 ft | 293 kts | 271° |
| 2026-05-06 02:33 | 39.93512 | -104.99272 | 10188 ft | 294 kts | 271° |
| 2026-05-06 02:33 | 39.93555 | -105.01071 | 10613 ft | 298 kts | 270° |
| 2026-05-06 02:33 | 39.93710 | -105.07431 | 12310 ft | 302 kts | 272° |
| 2026-05-06 02:34 | 39.93761 | -105.10136 | 13187 ft | 297 kts | 271° |
| 2026-05-06 02:34 | 39.93807 | -105.12791 | 14071 ft | 291 kts | 272° |
| 2026-05-06 02:34 | 39.93839 | -105.14520 | 14533 ft | 292 kts | 272° |
| 2026-05-06 02:34 | 39.93893 | -105.17098 | 15080 ft | 296 kts | 272° |
| 2026-05-06 02:35 | 39.93954 | -105.19817 | 15669 ft | 300 kts | 272° |
| 2026-05-06 02:35 | 39.94019 | -105.22517 | 16312 ft | 300 kts | 272° |
| 2026-05-06 02:35 | 39.94169 | -105.25226 | 16971 ft | 300 kts | 275° |
| 2026-05-06 02:35 | 39.94392 | -105.27919 | 17580 ft | 301 kts | 276° |
| 2026-05-06 02:36 | 39.94636 | -105.30620 | 18142 ft | 303 kts | 276° |
| 2026-05-06 02:36 | 39.94870 | -105.33360 | 18690 ft | 305 kts | 275° |
| 2026-05-06 02:36 | 39.95088 | -105.36112 | 19215 ft | 308 kts | 275° |
| 2026-05-06 02:36 | 39.95298 | -105.38908 | 19658 ft | 313 kts | 274° |
| 2026-05-06 02:37 | 39.95506 | -105.41737 | 20175 ft | 315 kts | 274° |
| 2026-05-06 02:37 | 39.95721 | -105.44577 | 20704 ft | 317 kts | 275° |
| 2026-05-06 02:37 | 39.95935 | -105.47440 | 21241 ft | 319 kts | 275° |
| 2026-05-06 02:37 | 39.96159 | -105.50327 | 21685 ft | 323 kts | 274° |
| 2026-05-06 02:38 | 39.96384 | -105.53262 | 22111 ft | 329 kts | 274° |
| 2026-05-06 02:38 | 39.96608 | -105.56230 | 22651 ft | 331 kts | 275° |
| 2026-05-06 02:38 | 39.96837 | -105.59199 | 23236 ft | 331 kts | 275° |
| 2026-05-06 02:38 | 39.97072 | -105.62209 | 23661 ft | 336 kts | 275° |
| 2026-05-06 02:39 | 39.97307 | -105.65253 | 24149 ft | 340 kts | 275° |
| 2026-05-06 02:39 | 39.97522 | -105.68340 | 24715 ft | 340 kts | 273° |
| 2026-05-06 02:39 | 39.97685 | -105.71413 | 25234 ft | 342 kts | 273° |
| 2026-05-06 02:39 | 39.97832 | -105.74510 | 25650 ft | 345 kts | 273° |
| 2026-05-06 02:40 | 39.97974 | -105.77643 | 26104 ft | 348 kts | 273° |
| 2026-05-06 02:40 | 39.98121 | -105.80807 | 26525 ft | 351 kts | 273° |
| 2026-05-06 02:40 | 39.98273 | -105.84030 | 26829 ft | 357 kts | 273° |
| 2026-05-06 02:40 | 39.98429 | -105.87252 | 27310 ft | 357 kts | 274° |
| 2026-05-06 02:41 | 39.98593 | -105.90494 | 27809 ft | 357 kts | 274° |
| 2026-05-06 02:41 | 39.98756 | -105.93751 | 28218 ft | 359 kts | 274° |
| 2026-05-06 02:41 | 39.98916 | -105.97034 | 28602 ft | 361 kts | 273° |
| 2026-05-06 02:41 | 39.99077 | -106.00328 | 28971 ft | 364 kts | 274° |
| 2026-05-06 02:42 | 39.99236 | -106.03629 | 29363 ft | 366 kts | 274° |
| 2026-05-06 02:42 | 39.99395 | -106.06975 | 29624 ft | 371 kts | 275° |
| 2026-05-06 02:42 | 39.99553 | -106.10331 | 30067 ft | 371 kts | 274° |
| 2026-05-06 02:42 | 39.99710 | -106.13683 | 30474 ft | 372 kts | 275° |
| 2026-05-06 02:43 | 39.99866 | -106.17087 | 30678 ft | 377 kts | 275° |
| 2026-05-06 02:43 | 40.00023 | -106.20502 | 31081 ft | 377 kts | 275° |
| 2026-05-06 02:43 | 40.00177 | -106.23787 | 31367 ft | 380 kts | 275° |
| 2026-05-06 02:43 | 40.00339 | -106.27232 | 31678 ft | 382 kts | 275° |
| 2026-05-06 02:44 | 40.00500 | -106.30704 | 31961 ft | 385 kts | 276° |
| 2026-05-06 02:44 | 40.00605 | -106.33029 | 32179 ft | 386 kts | 276° |
| 2026-05-06 02:44 | 40.00816 | -106.37706 | 32580 ft | 388 kts | 275° |
| 2026-05-06 02:44 | 40.00974 | -106.41224 | 32865 ft | 391 kts | 276° |
| 2026-05-06 02:45 | 40.01132 | -106.44770 | 33103 ft | 394 kts | 276° |
| 2026-05-06 02:45 | 40.01290 | -106.48350 | 33454 ft | 394 kts | 276° |
| 2026-05-06 02:45 | 40.01442 | -106.51819 | 33678 ft | 397 kts | 276° |
| 2026-05-06 02:45 | 40.01599 | -106.55415 | 33953 ft | 399 kts | 276° |
| 2026-05-06 02:46 | 40.01757 | -106.59039 | 33970 ft | 401 kts | 276° |
| 2026-05-06 02:46 | 40.02069 | -106.66343 | 33966 ft | 401 kts | 276° |
| 2026-05-06 02:47 | 40.02375 | -106.73645 | 33957 ft | 400 kts | 276° |
| 2026-05-06 02:47 | 40.02675 | -106.80921 | 33938 ft | 401 kts | 276° |
| 2026-05-06 02:48 | 40.02975 | -106.88207 | 33939 ft | 404 kts | 276° |
| 2026-05-06 02:48 | 40.03271 | -106.95528 | 33931 ft | 404 kts | 276° |
| 2026-05-06 02:49 | 40.03563 | -107.02855 | 33927 ft | 404 kts | 276° |
| 2026-05-06 02:49 | 40.03850 | -107.10155 | 33920 ft | 404 kts | 276° |
| 2026-05-06 02:50 | 40.04133 | -107.17473 | 33918 ft | 406 kts | 277° |
| 2026-05-06 02:50 | 40.04410 | -107.24800 | 33918 ft | 405 kts | 277° |
| 2026-05-06 02:51 | 40.04686 | -107.32159 | 33921 ft | 407 kts | 277° |
| 2026-05-06 02:51 | 40.04952 | -107.39491 | 33927 ft | 407 kts | 277° |
| 2026-05-06 02:52 | 40.05216 | -107.46873 | 33936 ft | 406 kts | 276° |
| 2026-05-06 02:52 | 40.05473 | -107.54226 | 33944 ft | 406 kts | 277° |
| 2026-05-06 02:53 | 40.05729 | -107.61576 | 33936 ft | 408 kts | 277° |
| 2026-05-06 02:53 | 40.05982 | -107.68976 | 33944 ft | 408 kts | 277° |
| 2026-05-06 02:54 | 40.06229 | -107.76364 | 33941 ft | 406 kts | 277° |
| 2026-05-06 02:54 | 40.06471 | -107.83747 | 33941 ft | 408 kts | 276° |
| 2026-05-06 02:55 | 40.06707 | -107.91135 | 33928 ft | 406 kts | 276° |
| 2026-05-06 02:55 | 40.06987 | -107.98507 | 33937 ft | 409 kts | 278° |
| 2026-05-06 02:56 | 40.07341 | -108.05940 | 33920 ft | 409 kts | 278° |
| 2026-05-06 02:56 | 40.07692 | -108.13366 | 33921 ft | 412 kts | 278° |
| 2026-05-06 02:57 | 40.08032 | -108.20809 | 33931 ft | 409 kts | 278° |
| 2026-05-06 02:57 | 40.08360 | -108.28206 | 33203 ft | 410 kts | 278° |
| 2026-05-06 02:57 | 40.08524 | -108.31930 | 32364 ft | 414 kts | 278° |
| 2026-05-06 02:58 | 40.08686 | -108.35677 | 31981 ft | 411 kts | 278° |
| 2026-05-06 02:58 | 40.08996 | -108.43038 | 31916 ft | 410 kts | 278° |
| 2026-05-06 02:59 | 40.09311 | -108.50502 | 31904 ft | 410 kts | 278° |
| 2026-05-06 02:59 | 40.09617 | -108.57962 | 31910 ft | 414 kts | 278° |
| 2026-05-06 03:00 | 40.09923 | -108.65482 | 31912 ft | 413 kts | 277° |
| 2026-05-06 03:00 | 40.10225 | -108.73060 | 31912 ft | 416 kts | 278° |
| 2026-05-06 03:01 | 40.10520 | -108.80584 | 31914 ft | 413 kts | 278° |
| 2026-05-06 03:01 | 40.10811 | -108.88113 | 31917 ft | 416 kts | 278° |
| 2026-05-06 03:02 | 40.11095 | -108.95617 | 31914 ft | 413 kts | 278° |
| 2026-05-06 03:02 | 40.11377 | -109.03157 | 31914 ft | 418 kts | 278° |
| 2026-05-06 03:03 | 40.11656 | -109.10716 | 31914 ft | 416 kts | 277° |
| 2026-05-06 03:03 | 40.11928 | -109.18255 | 31919 ft | 416 kts | 278° |
| 2026-05-06 03:04 | 40.12196 | -109.25814 | 31920 ft | 417 kts | 278° |
| 2026-05-06 03:04 | 40.12458 | -109.33377 | 31924 ft | 416 kts | 278° |
| 2026-05-06 03:05 | 40.12716 | -109.40934 | 31923 ft | 418 kts | 278° |
| 2026-05-06 03:05 | 40.12969 | -109.48507 | 31925 ft | 417 kts | 278° |
| 2026-05-06 03:06 | 40.13172 | -109.56081 | 31917 ft | 414 kts | 277° |
| 2026-05-06 03:06 | 40.13214 | -109.59782 | 31918 ft | 403 kts | 276° |
| 2026-05-06 03:06 | 40.13236 | -109.63416 | 31923 ft | 401 kts | 276° |
| 2026-05-06 03:07 | 40.13279 | -109.70795 | 31921 ft | 406 kts | 276° |
| 2026-05-06 03:07 | 40.13319 | -109.78168 | 31911 ft | 408 kts | 276° |
| 2026-05-06 03:08 | 40.13357 | -109.85555 | 31918 ft | 406 kts | 276° |
| 2026-05-06 03:08 | 40.13393 | -109.92914 | 31915 ft | 408 kts | 276° |
| 2026-05-06 03:09 | 40.13428 | -110.00316 | 31922 ft | 410 kts | 276° |
| 2026-05-06 03:09 | 40.13456 | -110.07720 | 31919 ft | 408 kts | 276° |
| 2026-05-06 03:10 | 40.13483 | -110.15164 | 31920 ft | 410 kts | 276° |
| 2026-05-06 03:10 | 40.13501 | -110.22579 | 31929 ft | 407 kts | 276° |
| 2026-05-06 03:11 | 40.13513 | -110.29958 | 31936 ft | 407 kts | 276° |
| 2026-05-06 03:11 | 40.13526 | -110.37381 | 31937 ft | 410 kts | 276° |
| 2026-05-06 03:12 | 40.13528 | -110.44797 | 31946 ft | 409 kts | 276° |
| 2026-05-06 03:12 | 40.13528 | -110.52219 | 31961 ft | 407 kts | 277° |
| 2026-05-06 03:13 | 40.13524 | -110.59631 | 31962 ft | 410 kts | 277° |
| 2026-05-06 03:13 | 40.13519 | -110.67105 | 31963 ft | 412 kts | 276° |
| 2026-05-06 03:14 | 40.13505 | -110.74586 | 31971 ft | 410 kts | 276° |
| 2026-05-06 03:14 | 40.13485 | -110.82060 | 31988 ft | 412 kts | 276° |
| 2026-05-06 03:15 | 40.13458 | -110.89497 | 31993 ft | 409 kts | 276° |
| 2026-05-06 03:15 | 40.13431 | -110.96959 | 32000 ft | 413 kts | 277° |
| 2026-05-06 03:16 | 40.13399 | -111.04434 | 32004 ft | 412 kts | 276° |
| 2026-05-06 03:16 | 40.13360 | -111.11873 | 31870 ft | 405 kts | 276° |
| 2026-05-06 03:16 | 40.13338 | -111.15554 | 31612 ft | 407 kts | 277° |
| 2026-05-06 03:17 | 40.13316 | -111.19234 | 31187 ft | 404 kts | 277° |
| 2026-05-06 03:17 | 40.13293 | -111.22882 | 30692 ft | 402 kts | 277° |
| 2026-05-06 03:17 | 40.13268 | -111.26519 | 30192 ft | 399 kts | 276° |
| 2026-05-06 03:17 | 40.13243 | -111.30122 | 29682 ft | 397 kts | 276° |
| 2026-05-06 03:18 | 40.13217 | -111.33721 | 29170 ft | 395 kts | 277° |
| 2026-05-06 03:18 | 40.13190 | -111.37291 | 28673 ft | 393 kts | 276° |
| 2026-05-06 03:18 | 40.13161 | -111.40846 | 28165 ft | 390 kts | 276° |
| 2026-05-06 03:18 | 40.13131 | -111.44388 | 27655 ft | 388 kts | 276° |
| 2026-05-06 03:19 | 40.13101 | -111.47909 | 27145 ft | 386 kts | 275° |
| 2026-05-06 03:19 | 40.13131 | -111.51402 | 26638 ft | 381 kts | 279° |
| 2026-05-06 03:19 | 40.13443 | -111.54799 | 26148 ft | 372 kts | 288° |
| 2026-05-06 03:19 | 40.14161 | -111.57897 | 25680 ft | 364 kts | 296° |
| 2026-05-06 03:20 | 40.16241 | -111.63833 | 24742 ft | 355 kts | 301° |
| 2026-05-06 03:20 | 40.17346 | -111.66722 | 24268 ft | 352 kts | 300° |
| 2026-05-06 03:20 | 40.18435 | -111.69574 | 23802 ft | 349 kts | 300° |
| 2026-05-06 03:21 | 40.19510 | -111.72414 | 23340 ft | 347 kts | 300° |
| 2026-05-06 03:21 | 40.20564 | -111.75226 | 22875 ft | 344 kts | 300° |
| 2026-05-06 03:21 | 40.21605 | -111.78024 | 22426 ft | 341 kts | 300° |
| 2026-05-06 03:21 | 40.22636 | -111.80811 | 21979 ft | 339 kts | 300° |
| 2026-05-06 03:22 | 40.23651 | -111.83565 | 21541 ft | 336 kts | 300° |
| 2026-05-06 03:22 | 40.24657 | -111.86302 | 21103 ft | 333 kts | 300° |
| 2026-05-06 03:22 | 40.25653 | -111.89015 | 20673 ft | 330 kts | 300° |
| 2026-05-06 03:22 | 40.26715 | -111.91643 | 20227 ft | 324 kts | 306° |
| 2026-05-06 03:23 | 40.28059 | -111.93945 | 19832 ft | 315 kts | 318° |
| 2026-05-06 03:23 | 40.29738 | -111.95730 | 19426 ft | 308 kts | 328° |
| 2026-05-06 03:23 | 40.31546 | -111.97195 | 19027 ft | 305 kts | 331° |
| 2026-05-06 03:23 | 40.33380 | -111.98568 | 18622 ft | 301 kts | 332° |
| 2026-05-06 03:24 | 40.35198 | -111.99906 | 18228 ft | 298 kts | 333° |
| 2026-05-06 03:24 | 40.36998 | -112.01237 | 17848 ft | 295 kts | 332° |
| 2026-05-06 03:24 | 40.38781 | -112.02571 | 17458 ft | 293 kts | 332° |
| 2026-05-06 03:24 | 40.40548 | -112.03857 | 17159 ft | 288 kts | 335° |
| 2026-05-06 03:25 | 40.42384 | -112.04856 | 16790 ft | 284 kts | 344° |
| 2026-05-06 03:25 | 40.44311 | -112.05365 | 16414 ft | 282 kts | 352° |
| 2026-05-06 03:25 | 40.46256 | -112.05636 | 16032 ft | 281 kts | 354° |
| 2026-05-06 03:25 | 40.48198 | -112.05847 | 15657 ft | 279 kts | 354° |
| 2026-05-06 03:26 | 40.50099 | -112.06062 | 15302 ft | 277 kts | 354° |
| 2026-05-06 03:26 | 40.52078 | -112.06309 | 14914 ft | 286 kts | 354° |
| 2026-05-06 03:26 | 40.54126 | -112.06580 | 14497 ft | 296 kts | 354° |
| 2026-05-06 03:26 | 40.56115 | -112.06846 | 14110 ft | 295 kts | 354° |
| 2026-05-06 03:27 | 40.58151 | -112.07119 | 13718 ft | 293 kts | 354° |
| 2026-05-06 03:27 | 40.60174 | -112.07389 | 13327 ft | 290 kts | 354° |
| 2026-05-06 03:27 | 40.62178 | -112.07655 | 12939 ft | 288 kts | 354° |
| 2026-05-06 03:27 | 40.64169 | -112.07916 | 12557 ft | 286 kts | 354° |
| 2026-05-06 03:28 | 40.66145 | -112.08152 | 12178 ft | 284 kts | 355° |
| 2026-05-06 03:28 | 40.68112 | -112.08374 | 11822 ft | 281 kts | 355° |
| 2026-05-06 03:28 | 40.70034 | -112.08591 | 11647 ft | 272 kts | 355° |
| 2026-05-06 03:28 | 40.71910 | -112.08807 | 11573 ft | 269 kts | 355° |
| 2026-05-06 03:29 | 40.73873 | -112.09035 | 11479 ft | 286 kts | 355° |
| 2026-05-06 03:29 | 40.75893 | -112.09270 | 11377 ft | 291 kts | 355° |
| 2026-05-06 03:29 | 40.77898 | -112.09508 | 11271 ft | 284 kts | 355° |
| 2026-05-06 03:29 | 40.79862 | -112.09743 | 11163 ft | 272 kts | 355° |
| 2026-05-06 03:30 | 40.81714 | -112.09964 | 11061 ft | 264 kts | 355° |
| 2026-05-06 03:30 | 40.83561 | -112.10183 | 10739 ft | 269 kts | 355° |
| 2026-05-06 03:30 | 40.85442 | -112.10410 | 10249 ft | 272 kts | 355° |
| 2026-05-06 03:30 | 40.87288 | -112.10636 | 10097 ft | 263 kts | 355° |
| 2026-05-06 03:31 | 40.89107 | -112.10858 | 9724 ft | 263 kts | 355° |
| 2026-05-06 03:31 | 40.90931 | -112.11081 | 9332 ft | 264 kts | 355° |
| 2026-05-06 03:31 | 40.92782 | -112.11307 | 8932 ft | 265 kts | 355° |
| 2026-05-06 03:31 | 40.94628 | -112.11532 | 8591 ft | 264 kts | 355° |
| 2026-05-06 03:32 | 40.96476 | -112.11757 | 8184 ft | 266 kts | 355° |
| 2026-05-06 03:32 | 40.98331 | -112.11764 | 7766 ft | 268 kts | 9° |
| 2026-05-06 03:32 | 41.00074 | -112.10943 | 7385 ft | 269 kts | 31° |
| 2026-05-06 03:32 | 41.01463 | -112.09315 | 7059 ft | 268 kts | 53° |
| 2026-05-06 03:33 | 41.02264 | -112.07113 | 7005 ft | 268 kts | 76° |
| 2026-05-06 03:33 | 41.02383 | -112.04659 | 6991 ft | 265 kts | 98° |
| 2026-05-06 03:33 | 41.01823 | -112.02403 | 6887 ft | 254 kts | 120° |
| 2026-05-06 03:33 | 41.00698 | -112.00637 | 6766 ft | 247 kts | 139° |
| 2026-05-06 03:34 | 40.99232 | -111.99452 | 6643 ft | 246 kts | 161° |
| 2026-05-06 03:34 | 40.97538 | -111.99135 | 6555 ft | 244 kts | 184° |
| 2026-05-06 03:34 | 40.95843 | -111.99350 | 6508 ft | 244 kts | 182° |
| 2026-05-06 03:34 | 40.94155 | -111.99311 | 6458 ft | 238 kts | 176° |
| 2026-05-06 03:35 | 40.92585 | -111.99099 | 6416 ft | 225 kts | 174° |
| 2026-05-06 03:35 | 40.91018 | -111.98885 | 6227 ft | 221 kts | 175° |
| 2026-05-06 03:35 | 40.89492 | -111.98704 | 5933 ft | 219 kts | 175° |
| 2026-05-06 03:35 | 40.87981 | -111.98531 | 5641 ft | 216 kts | 175° |
| 2026-05-06 03:36 | 40.86526 | -111.98363 | 5384 ft | 200 kts | 175° |
| 2026-05-06 03:36 | 40.85164 | -111.98205 | 5103 ft | 187 kts | 175° |
| 2026-05-06 03:36 | 40.83918 | -111.98060 | 4876 ft | 171 kts | 175° |
| 2026-05-06 03:36 | 40.82776 | -111.97927 | 4653 ft | 159 kts | 174° |
| 2026-05-06 03:37 | 40.81675 | -111.97801 | 4468 ft | 156 kts | 174° |
| 2026-05-06 03:37 | 40.80584 | -111.97680 | 4275 ft | 155 kts | 174° |
| 2026-05-06 03:37 | 40.79545 | -111.97553 | 4228 ft | 138 kts | 176° |
| 2026-05-06 03:37 | 40.78714 | -111.97459 | 4229 ft | 100 kts | 173° |
| 2026-05-06 03:38 | 40.78241 | -111.97415 | 4230 ft | 32 kts | 189° |
| 2026-05-06 03:38 | 40.78140 | -111.97438 | 4230 ft | 10 kts | 191° |
| 2026-05-06 03:38 | 40.78084 | -111.97464 | 4231 ft | 5 kts | 204° |
| 2026-05-06 03:38 | 40.78055 | -111.97487 | 4231 ft | 4 kts | 231° |
| 2026-05-06 03:39 | 40.78048 | -111.97506 | 4231 ft | 2 kts | 250° |
| 2026-05-06 03:39 | 40.78046 | -111.97515 | 4231 ft | 1 kts | 255° |
| 2026-05-06 03:39 | 40.78045 | -111.97521 | 4231 ft | 0 kts | 257° |
| 2026-05-06 03:40 | 40.78044 | -111.97522 | 4231 ft | 0 kts | 257° |
| 2026-05-06 03:40 | 40.78045 | -111.97536 | 4231 ft | 2 kts | 278° |
| 2026-05-06 03:40 | 40.78048 | -111.97560 | 4231 ft | 3 kts | 287° |
| 2026-05-06 03:41 | 40.78059 | -111.97587 | 4231 ft | 3 kts | 315° |
| 2026-05-06 03:41 | 40.78086 | -111.97602 | 4231 ft | 5 kts | 345° |
| 2026-05-06 03:41 | 40.78146 | -111.97611 | 4231 ft | 9 kts | 356° |
| 2026-05-06 03:41 | 40.78203 | -111.97617 | 4230 ft | 8 kts | 355° |